createdAt,value
2023-03-05T00:02:07.101Z,67.66
2023-03-05T00:05:09.344Z,67.41
2023-03-05T00:08:24.373Z,66.82
2023-03-05T00:11:39.382Z,66.89
2023-03-05T00:14:54.415Z,67.01
2023-03-05T00:18:09.328Z,67.24
2023-03-05T00:21:23.699Z,66.59
2023-03-05T00:24:32.406Z,66.91
2023-03-05T00:27:47.365Z,66.86
2023-03-05T00:30:49.275Z,66.60
2023-03-05T00:34:08.318Z,66.93
2023-03-05T00:37:17.418Z,67.01
2023-03-05T00:40:26.408Z,66.90
2023-03-05T00:43:41.342Z,66.81
2023-03-05T00:46:49.475Z,67.11
2023-03-05T00:49:58.177Z,67.59
2023-03-05T00:53:13.381Z,67.25
2023-03-05T00:56:29.383Z,66.84
2023-03-05T00:59:31.701Z,67.12
2023-03-05T01:02:46.404Z,66.57
2023-03-05T01:05:55.194Z,66.48
2023-03-05T01:09:03.345Z,66.53
2023-03-05T01:12:18.445Z,65.99
2023-03-05T01:15:27.226Z,66.10
2023-03-05T01:18:44.373Z,66.01
2023-03-05T01:21:46.176Z,65.62
2023-03-05T01:25:01.379Z,65.95
2023-03-05T01:28:16.309Z,66.22
2023-03-05T01:31:25.364Z,65.64
2023-03-05T01:34:40.357Z,65.63
2023-03-05T01:37:42.222Z,66.12
2023-03-05T01:40:57.478Z,66.33
2023-03-05T01:43:59.553Z,66.08
2023-03-05T01:47:14.350Z,66.19
2023-03-05T01:50:19.898Z,66.40
2023-03-05T01:53:34.341Z,66.89
2023-03-05T01:56:37.928Z,66.31
2023-03-05T01:59:57.385Z,66.82
2023-03-05T02:03:16.362Z,66.68
2023-03-05T02:06:25.108Z,66.49
2023-03-05T02:09:34.373Z,66.75
2023-03-05T02:12:43.161Z,66.56
2023-03-05T02:15:52.386Z,66.42
2023-03-05T02:19:17.365Z,66.30
2023-03-05T02:22:26.077Z,66.68
2023-03-05T02:25:40.442Z,66.72
2023-03-05T02:28:54.370Z,66.69
2023-03-05T02:32:04.107Z,66.38
2023-03-05T02:35:13.357Z,66.25
2023-03-05T02:38:28.396Z,66.34
2023-03-05T02:41:30.184Z,66.90
2023-03-05T02:44:45.378Z,66.08
2023-03-05T02:47:47.271Z,66.71
2023-03-05T02:51:03.365Z,66.72
2023-03-05T02:54:05.482Z,66.93
2023-03-05T02:57:20.412Z,66.97
2023-03-05T03:00:29.417Z,66.95
2023-03-05T03:03:38.742Z,66.58
2023-03-05T03:06:47.442Z,66.63
2023-03-05T03:10:02.413Z,66.37
2023-03-05T03:13:10.373Z,66.41
2023-03-05T03:16:25.444Z,66.30
2023-03-05T03:19:33.361Z,66.64
2023-03-05T03:22:43.770Z,66.75
2023-03-05T03:25:52.353Z,66.58
2023-03-05T03:29:01.227Z,66.36
2023-03-05T03:32:09.489Z,67.06
2023-03-05T03:35:25.459Z,66.87
2023-03-05T03:38:27.578Z,66.69
2023-03-05T03:41:44.390Z,67.14
2023-03-05T03:44:53.425Z,66.49
2023-03-05T03:48:08.429Z,66.69
2023-03-05T03:51:17.381Z,66.23
2023-03-05T03:54:26.070Z,66.11
2023-03-05T03:57:36.427Z,66.36
2023-03-05T04:00:45.133Z,66.62
2023-03-05T04:03:53.582Z,66.04
2023-03-05T04:07:08.456Z,66.10
2023-03-05T04:10:24.413Z,65.63
2023-03-05T04:13:33.310Z,65.89
2023-03-05T04:16:48.472Z,66.07
2023-03-05T04:19:57.068Z,66.03
2023-03-05T04:26:46.080Z,66.66
2023-03-05T04:30:00.451Z,66.49
2023-03-05T04:33:09.226Z,66.44
2023-03-05T04:36:17.449Z,65.91
2023-03-05T04:39:32.449Z,66.09
2023-03-05T04:42:41.966Z,66.27
2023-03-05T04:45:51.409Z,66.07
2023-03-05T04:49:00.195Z,65.98
2023-03-05T04:52:08.506Z,66.52
2023-03-05T04:55:24.428Z,66.39
2023-03-05T04:58:26.562Z,65.92
2023-03-05T05:01:41.469Z,65.86
2023-03-05T05:04:43.387Z,65.74
2023-03-05T05:08:05.439Z,65.18
2023-03-05T05:11:14.749Z,65.48
2023-03-05T05:14:29.437Z,65.00
2023-03-05T05:17:44.831Z,65.16
2023-03-05T05:20:53.435Z,65.23
2023-03-05T05:24:08.427Z,65.26
2023-03-05T05:27:10.578Z,65.55
2023-03-05T05:30:25.433Z,65.66
2023-03-05T05:33:34.534Z,66.01
2023-03-05T05:36:49.457Z,65.90
2023-03-05T05:39:58.222Z,65.18
2023-03-05T05:43:15.445Z,65.16
2023-03-05T05:46:25.485Z,64.79
2023-03-05T05:49:34.218Z,64.84
2023-03-05T05:52:49.444Z,64.64
2023-03-05T05:55:52.290Z,64.46
2023-03-05T05:59:07.465Z,64.53
2023-03-05T06:02:09.348Z,64.40
2023-03-05T06:05:24.464Z,64.21
2023-03-05T06:08:26.233Z,64.38
2023-03-05T06:11:41.478Z,64.17
2023-03-05T06:14:49.481Z,63.91
2023-03-05T06:18:04.786Z,63.99
2023-03-05T06:21:18.459Z,64.37
2023-03-05T06:24:33.436Z,63.91
2023-03-05T06:27:44.650Z,63.63
2023-03-05T06:31:09.527Z,63.85
2023-03-05T06:34:18.474Z,64.00
2023-03-05T06:37:33.687Z,63.78
2023-03-05T06:40:38.414Z,63.41
2023-03-05T06:43:55.543Z,63.66
2023-03-05T06:47:04.456Z,63.13
2023-03-05T06:50:13.227Z,63.31
2023-03-05T06:53:21.512Z,62.99
2023-03-05T06:56:30.323Z,62.86
2023-03-05T06:59:38.455Z,63.25
2023-03-05T07:02:53.501Z,62.78
2023-03-05T07:05:55.398Z,63.01
2023-03-05T07:09:13.498Z,62.33
2023-03-05T07:12:15.415Z,62.28
2023-03-05T07:15:30.439Z,62.20
2023-03-05T07:18:38.937Z,62.17
2023-03-05T07:21:53.461Z,62.11
2023-03-05T07:25:02.217Z,62.11
2023-03-05T07:28:17.486Z,61.76
2023-03-05T07:31:21.894Z,62.33
2023-03-05T07:34:36.484Z,62.55
2023-03-05T07:37:51.565Z,62.42
2023-03-05T07:40:53.662Z,62.29
2023-03-05T07:44:08.509Z,63.01
2023-03-05T07:47:16.696Z,62.86
2023-03-05T07:50:31.545Z,62.41
2023-03-05T07:53:33.500Z,62.30
2023-03-05T07:56:48.542Z,62.62
2023-03-05T07:59:57.859Z,62.16
2023-03-05T08:03:06.501Z,62.25
2023-03-05T08:06:21.503Z,61.94
2023-03-05T08:09:37.541Z,61.66
2023-03-05T08:12:46.155Z,61.65
2023-03-05T08:16:00.599Z,61.69
2023-03-05T08:19:15.838Z,61.67
2023-03-05T08:22:24.503Z,62.00
2023-03-05T08:25:39.518Z,61.82
2023-03-05T08:28:41.573Z,61.71
2023-03-05T08:31:57.635Z,62.00
2023-03-05T08:35:06.823Z,61.56
2023-03-05T08:38:15.502Z,60.98
2023-03-05T08:41:24.048Z,61.01
2023-03-05T08:44:32.553Z,60.79
2023-03-05T08:47:41.173Z,60.52
2023-03-05T08:50:49.508Z,60.42
2023-03-05T08:53:58.841Z,60.97
2023-03-05T08:57:13.539Z,60.53
2023-03-05T09:00:15.869Z,60.44
2023-03-05T09:03:30.553Z,60.42
2023-03-05T09:06:39.273Z,60.15
2023-03-05T09:09:48.575Z,59.79
2023-03-05T09:12:57.117Z,59.67
2023-03-05T09:16:08.589Z,59.24
2023-03-05T09:19:17.242Z,58.62
2023-03-05T09:22:25.556Z,57.75
2023-03-05T09:25:40.506Z,57.57
2023-03-05T09:28:42.596Z,57.18
2023-03-05T09:31:58.598Z,57.20
2023-03-05T09:35:00.508Z,58.11
2023-03-05T09:38:15.542Z,58.74
2023-03-05T09:41:35.529Z,58.51
2023-03-05T09:45:08.903Z,58.72
2023-03-05T09:48:28.549Z,58.40
2023-03-05T09:51:40.415Z,58.96
2023-03-05T09:54:53.508Z,59.32
2023-03-05T09:58:14.388Z,59.33
2023-03-05T10:01:27.591Z,58.91
2023-03-05T10:04:46.541Z,58.47
2023-03-05T10:08:07.537Z,58.04
2023-03-05T10:11:34.581Z,58.33
2023-03-05T10:14:43.192Z,57.85
2023-03-05T10:18:09.605Z,57.42
2023-03-05T10:21:28.354Z,57.25
2023-03-05T10:24:55.567Z,56.94
2023-03-05T10:28:09.831Z,56.44
2023-03-05T10:31:35.624Z,56.53
2023-03-05T10:35:03.710Z,56.46
2023-03-05T10:38:41.556Z,56.56
2023-03-05T10:42:09.565Z,55.91
2023-03-05T10:45:24.371Z,55.78
2023-03-05T10:48:55.576Z,55.83
2023-03-05T10:52:23.586Z,55.17
2023-03-05T10:55:25.356Z,54.72
2023-03-05T10:58:40.623Z,54.54
2023-03-05T11:02:01.279Z,54.18
2023-03-05T11:05:43.571Z,54.34
2023-03-05T11:08:51.584Z,54.25
2023-03-05T11:12:15.018Z,54.71
2023-03-05T11:15:33.645Z,54.52
2023-03-05T11:18:41.950Z,54.41
2023-03-05T11:22:16.610Z,54.17
2023-03-05T11:25:31.624Z,53.66
2023-03-05T11:28:56.391Z,53.73
2023-03-05T11:32:23.785Z,53.00
2023-03-05T11:35:32.158Z,53.35
2023-03-05T11:38:59.623Z,53.23
2023-03-05T11:42:23.618Z,53.87
2023-03-05T11:45:39.592Z,53.00
2023-03-05T11:48:45.189Z,52.97
2023-03-05T11:52:14.581Z,52.62
2023-03-05T11:55:41.873Z,51.61
2023-03-05T11:59:08.586Z,34.60
2023-03-05T12:02:23.275Z,34.27
2023-03-05T12:05:40.613Z,39.40
2023-03-05T12:08:54.285Z,41.71
2023-03-05T12:12:14.586Z,45.25
2023-03-05T12:15:45.688Z,46.37
2023-03-05T12:19:13.741Z,46.72
2023-03-05T12:22:30.678Z,47.61
2023-03-05T12:25:54.620Z,47.86
2023-03-05T12:29:03.573Z,47.06
2023-03-05T12:32:23.631Z,47.24
2023-03-05T12:35:35.107Z,45.08
2023-03-05T12:38:50.698Z,41.91
2023-03-05T12:42:05.741Z,37.17
2023-03-05T12:45:30.574Z,37.96
2023-03-05T12:48:50.850Z,36.12
2023-03-05T12:52:01.645Z,39.95
2023-03-05T12:55:23.276Z,41.90
2023-03-05T12:58:46.641Z,42.22
2023-03-05T13:02:06.670Z,38.00
2023-03-05T13:05:27.628Z,38.85
2023-03-05T13:08:43.668Z,43.19
2023-03-05T13:11:55.702Z,44.85
2023-03-05T13:15:07.658Z,45.46
2023-03-05T13:18:28.695Z,46.08
2023-03-05T13:21:37.773Z,46.22
2023-03-05T13:24:46.605Z,46.64
2023-03-05T13:28:03.705Z,46.89
2023-03-05T13:31:22.716Z,46.80
2023-03-05T13:34:46.861Z,46.78
2023-03-05T13:37:56.749Z,46.19
2023-03-05T13:41:24.663Z,46.96
2023-03-05T13:44:34.822Z,46.60
2023-03-05T13:47:43.714Z,47.32
2023-03-05T13:50:56.450Z,47.35
2023-03-05T13:54:05.669Z,47.29
2023-03-05T13:57:34.431Z,48.17
2023-03-05T14:00:49.724Z,48.71
2023-03-05T14:03:59.610Z,49.31
2023-03-05T14:07:34.725Z,50.04
2023-03-05T14:10:45.751Z,50.56
2023-03-05T14:13:55.745Z,50.68
2023-03-05T14:17:30.701Z,51.25
2023-03-05T14:20:48.658Z,51.62
2023-03-05T14:23:57.683Z,52.01
2023-03-05T14:27:11.725Z,51.87
2023-03-05T14:30:22.522Z,51.83
2023-03-05T14:33:36.693Z,51.33
2023-03-05T14:36:55.701Z,51.42
2023-03-05T14:40:13.696Z,51.63
2023-03-05T14:43:15.866Z,51.79
2023-03-05T14:46:30.835Z,51.68
2023-03-05T14:49:32.733Z,51.90
2023-03-05T14:52:47.674Z,51.39
2023-03-05T14:55:58.686Z,51.21
2023-03-05T14:59:09.069Z,51.79
2023-03-05T15:02:22.758Z,51.90
2023-03-05T15:05:32.026Z,52.00
2023-03-05T15:08:46.694Z,52.25
2023-03-05T15:11:56.741Z,52.91
2023-03-05T15:15:06.005Z,52.87
2023-03-05T15:18:22.660Z,52.36
2023-03-05T15:21:31.366Z,53.19
2023-03-05T15:24:39.675Z,52.68
2023-03-05T15:27:48.389Z,52.87
2023-03-05T15:30:58.262Z,52.96
2023-03-05T15:34:14.733Z,53.50
2023-03-05T15:37:16.618Z,53.03
2023-03-05T15:40:32.708Z,53.06
2023-03-05T15:43:41.376Z,52.81
2023-03-05T15:46:55.798Z,52.54
2023-03-05T15:49:57.732Z,53.09
2023-03-05T15:53:12.727Z,53.45
2023-03-05T15:56:27.754Z,53.26
2023-03-05T15:59:30.004Z,53.10
2023-03-05T16:02:44.694Z,53.39
2023-03-05T16:05:46.508Z,54.16
2023-03-05T16:09:08.711Z,53.90
2023-03-05T16:12:27.986Z,53.92
2023-03-05T16:15:46.786Z,54.46
2023-03-05T16:18:55.811Z,54.62
2023-03-05T16:22:10.697Z,54.60
2023-03-05T16:25:12.757Z,54.70
2023-03-05T16:28:28.712Z,54.83
2023-03-05T16:31:40.839Z,54.37
2023-03-05T16:34:49.430Z,54.40
2023-03-05T16:38:03.848Z,54.43
2023-03-05T16:41:12.766Z,54.46
2023-03-05T16:44:21.597Z,54.40
2023-03-05T16:47:37.156Z,54.28
2023-03-05T16:50:51.769Z,53.27
2023-03-05T16:53:55.614Z,52.24
2023-03-05T16:57:10.831Z,51.67
2023-03-05T17:00:13.478Z,50.69
2023-03-05T17:03:27.722Z,50.83
2023-03-05T17:06:38.804Z,50.44
2023-03-05T17:09:53.785Z,49.77
2023-03-05T17:13:08.785Z,49.31
2023-03-05T17:16:12.498Z,49.16
2023-03-05T17:19:34.725Z,49.63
2023-03-05T17:22:37.001Z,48.86
2023-03-05T17:25:52.797Z,49.22
2023-03-05T17:29:00.755Z,48.86
2023-03-05T17:32:15.825Z,49.16
2023-03-05T17:35:20.081Z,50.03
2023-03-05T17:38:35.761Z,48.95
2023-03-05T17:41:37.592Z,49.65
2023-03-05T17:44:53.744Z,49.74
2023-03-05T17:47:56.723Z,49.89
2023-03-05T17:51:16.860Z,50.14
2023-03-05T17:54:25.792Z,50.69
2023-03-05T17:57:35.815Z,51.09
2023-03-05T18:00:44.748Z,50.80
2023-03-05T18:03:53.932Z,51.12
2023-03-05T18:07:01.802Z,51.55
2023-03-05T18:10:11.677Z,51.36
2023-03-05T18:13:19.745Z,51.84
2023-03-05T18:16:41.812Z,51.43
2023-03-05T18:19:57.769Z,51.24
2023-03-05T18:23:06.481Z,50.97
2023-03-05T18:26:14.760Z,51.52
2023-03-05T18:29:29.829Z,51.57
2023-03-05T18:32:31.699Z,51.83
2023-03-05T18:35:47.849Z,51.95
2023-03-05T18:38:49.765Z,51.13
2023-03-05T18:42:04.772Z,51.26
2023-03-05T18:45:13.777Z,51.23
2023-03-05T18:48:29.814Z,51.02
2023-03-05T18:51:38.786Z,51.33
2023-03-05T18:54:53.861Z,51.42
2023-03-05T18:57:56.202Z,51.71
2023-03-05T19:01:11.813Z,52.19
2023-03-05T19:04:20.566Z,51.80
2023-03-05T19:07:35.820Z,51.35
2023-03-05T19:10:44.561Z,51.36
2023-03-05T19:13:54.799Z,51.24
2023-03-05T19:17:09.818Z,51.29
2023-03-05T19:20:25.118Z,51.16
2023-03-05T19:23:33.798Z,51.22
2023-03-05T19:26:43.105Z,51.34
2023-03-05T19:29:58.828Z,51.07
2023-03-05T19:33:13.797Z,51.61
2023-03-05T19:36:15.837Z,51.60
2023-03-05T19:39:30.852Z,51.52
2023-03-05T19:42:40.046Z,51.53
2023-03-05T19:45:54.845Z,51.31
2023-03-05T19:49:04.299Z,51.36
2023-03-05T19:52:13.897Z,51.54
2023-03-05T19:55:28.777Z,51.42
2023-03-05T19:58:37.612Z,51.47
2023-03-05T20:01:45.898Z,51.26
2023-03-05T20:04:55.638Z,51.04
2023-03-05T20:08:03.790Z,51.44
2023-03-05T20:11:21.801Z,51.04
2023-03-05T20:14:30.795Z,51.31
2023-03-05T20:17:45.917Z,50.83
2023-03-05T20:21:07.806Z,50.95
2023-03-05T20:24:14.296Z,51.39
2023-03-05T20:27:28.814Z,51.23
2023-03-05T20:30:30.834Z,50.83
2023-03-05T20:33:45.827Z,50.93
2023-03-05T20:36:54.370Z,51.25
2023-03-05T20:40:02.879Z,51.70
2023-03-05T20:43:17.785Z,52.27
2023-03-05T20:46:29.098Z,52.49
2023-03-05T20:49:43.858Z,53.07
2023-03-05T20:52:51.810Z,53.19
2023-03-05T20:56:00.501Z,53.33
2023-03-05T20:59:11.954Z,53.95
2023-03-05T21:02:20.508Z,54.67
2023-03-05T21:05:33.881Z,54.61
2023-03-05T21:08:42.856Z,54.60
2023-03-05T21:11:50.860Z,54.65
2023-03-05T21:15:05.859Z,55.32
2023-03-05T21:18:07.771Z,55.45
2023-03-05T21:21:29.918Z,55.33
2023-03-05T21:25:08.226Z,55.42
2023-03-05T21:28:22.853Z,56.52
2023-03-05T21:31:24.797Z,56.43
2023-03-05T21:34:39.843Z,56.18
2023-03-05T21:37:48.876Z,56.52
2023-03-05T21:41:04.824Z,56.32
2023-03-05T21:44:19.886Z,56.21
2023-03-05T21:47:21.694Z,56.20
2023-03-05T21:50:36.846Z,57.00
2023-03-05T21:53:38.897Z,56.94
2023-03-05T21:56:54.229Z,57.29
2023-03-05T22:00:03.744Z,56.78
2023-03-05T22:03:18.882Z,56.59
2023-03-05T22:06:27.868Z,56.38
2023-03-05T22:09:36.431Z,56.02
2023-03-05T22:12:59.850Z,56.41
2023-03-05T22:16:09.172Z,56.13
2023-03-05T22:19:25.814Z,56.68
2023-03-05T22:22:27.701Z,56.30
2023-03-05T22:25:42.856Z,56.58
2023-03-05T22:28:51.891Z,57.18
2023-03-05T22:32:06.946Z,56.88
2023-03-05T22:35:12.832Z,57.32
2023-03-05T22:38:27.848Z,57.11
2023-03-05T22:41:36.885Z,57.25
2023-03-05T22:44:45.496Z,57.45
2023-03-05T22:47:55.884Z,57.85
2023-03-05T22:51:04.889Z,57.72
2023-03-05T22:54:12.886Z,57.74
2023-03-05T22:57:27.923Z,57.67
2023-03-05T23:00:29.790Z,57.88
2023-03-05T23:03:46.012Z,57.93
2023-03-05T23:06:53.878Z,57.80
2023-03-05T23:10:14.948Z,58.05
2023-03-05T23:13:16.817Z,58.22
2023-03-05T23:16:31.862Z,58.08
2023-03-05T23:19:40.322Z,58.32
2023-03-05T23:22:56.057Z,58.21
2023-03-05T23:26:10.832Z,58.10
2023-03-05T23:29:42.382Z,57.88
2023-03-05T23:33:00.959Z,57.82
2023-03-05T23:36:02.736Z,58.20
2023-03-05T23:39:17.873Z,58.55
2023-03-05T23:42:25.923Z,58.39
2023-03-05T23:45:35.302Z,58.52
2023-03-05T23:48:44.198Z,58.79
2023-03-05T23:51:52.503Z,58.98
2023-03-05T23:55:00.910Z,58.92
2023-03-05T23:58:10.089Z,58.27
